Time;durP1;ratioP1;P1;durP2;ratioP2;P2;SDS_P1;SDS_P2;PMS_P1;PMS_P2;Temp;Humidity;BMP_temperature;BMP_pressure;BME280_temperature;BME280_humidity;BME280_pressure;Samples;Min_cycle;Max_cycle;Signal;HPM_P1;HPM_P2
2023/07/06 00:01:10;;;;;;;12.80;8.00;;;;;;;13.42;100.00;101465.63;5089346;28;20028;-74
2023/07/06 00:03:36;;;;;;;9.45;7.50;;;;;;;13.41;100.00;101469.25;5089724;28;20369;-74
2023/07/06 00:06:09;;;;;;;14.35;7.90;;;;;;;13.44;100.00;101466.34;5082935;28;20480;-74
2023/07/06 00:08:37;;;;;;;11.25;7.50;;;;;;;13.34;100.00;101470.66;5088763;28;20039;-74
2023/07/06 00:11:04;;;;;;;12.48;7.18;;;;;;;13.34;100.00;101466.22;5068027;28;20395;-73
2023/07/06 00:13:30;;;;;;;10.25;6.68;;;;;;;13.33;100.00;101464.53;5068440;28;20052;-82
2023/07/06 00:15:56;;;;;;;12.27;6.57;;;;;;;13.25;100.00;101468.72;5081032;28;20106;-82
2023/07/06 00:18:22;;;;;;;11.30;7.00;;;;;;;13.20;100.00;101470.84;5088231;28;20032;-82
2023/07/06 00:20:49;;;;;;;9.38;6.47;;;;;;;13.20;100.00;101469.03;5088488;28;20031;-82
2023/07/06 00:23:15;;;;;;;8.88;6.32;;;;;;;13.13;100.00;101468.63;5087838;28;20019;-73
2023/07/06 00:25:41;;;;;;;9.30;5.85;;;;;;;13.11;100.00;101467.91;5083650;28;20395;-73
2023/07/06 00:28:09;;;;;;;10.27;6.30;;;;;;;13.09;100.00;101469.81;5088796;28;20023;-83
2023/07/06 00:33:11;;;;;;;8.63;5.40;;;;;;;13.11;100.00;101465.25;5088428;28;20067;-73
2023/07/06 00:35:39;;;;;;;10.73;6.40;;;;;;;13.05;100.00;101471.00;5088753;28;20016;-74
2023/07/06 00:38:09;;;;;;;9.85;6.47;;;;;;;13.02;100.00;101468.59;5089233;28;20016;-74
2023/07/06 00:40:37;;;;;;;11.50;6.38;;;;;;;13.00;100.00;101467.03;5089054;28;20024;-74
2023/07/06 00:43:03;;;;;;;10.25;6.00;;;;;;;12.98;100.00;101468.94;5082367;28;20035;-73
2023/07/06 00:45:29;;;;;;;8.40;5.97;;;;;;;12.95;100.00;101479.72;5089016;28;20492;-73
2023/07/06 00:47:59;;;;;;;8.70;6.10;;;;;;;12.90;100.00;101477.44;5088933;28;20028;-74
2023/07/06 00:50:28;;;;;;;13.70;6.63;;;;;;;12.87;100.00;101477.66;5089282;28;20023;-74
2023/07/06 00:53:14;;;;;;;12.93;6.50;;;;;;;12.86;100.00;101468.06;5089530;28;20040;-73
2023/07/06 00:55:43;;;;;;;7.82;5.72;;;;;;;12.85;100.00;101471.66;5075947;28;20023;-72
2023/07/06 00:58:43;;;;;;;10.15;6.18;;;;;;;12.84;100.00;101468.16;5084095;28;20030;-72
2023/07/06 01:01:10;;;;;;;12.15;6.15;;;;;;;12.79;100.00;101466.78;5082138;28;20028;-73
2023/07/06 01:03:43;;;;;;;9.90;5.70;;;;;;;12.80;100.00;101466.69;5079838;28;20032;-72
2023/07/06 01:06:20;;;;;;;9.90;5.50;;;;;;;12.73;100.00;101464.59;5088841;28;20544;-72
2023/07/06 01:08:48;;;;;;;10.27;5.78;;;;;;;12.70;100.00;101470.13;5086388;28;20475;-72
2023/07/06 01:11:14;;;;;;;11.02;5.90;;;;;;;12.71;100.00;101466.50;5088983;28;20032;-72
2023/07/06 01:13:47;;;;;;;11.65;5.60;;;;;;;12.64;100.00;101471.41;5088822;28;20042;-72
2023/07/06 01:16:25;;;;;;;9.95;5.90;;;;;;;12.66;100.00;101464.22;5070784;28;20442;-72
2023/07/06 01:19:13;;;;;;;8.77;5.10;;;;;;;12.66;100.00;101473.94;5067127;28;20028;-81
2023/07/06 01:21:48;;;;;;;9.73;5.00;;;;;;;12.60;100.00;101471.75;5086859;28;20073;-71
2023/07/06 01:24:31;;;;;;;13.45;5.20;;;;;;;12.58;100.00;101478.94;5067723;28;20484;-82
2023/07/06 01:27:12;;;;;;;12.18;4.72;;;;;;;12.58;100.00;101474.50;5087254;28;20059;-83
2023/07/06 01:30:29;;;;;;;8.55;4.82;;;;;;;12.58;100.00;101471.00;5088714;28;20095;-81
2023/07/06 01:33:06;;;;;;;8.85;5.13;;;;;;;12.53;100.00;101471.34;5056678;28;20032;-81
2023/07/06 01:35:56;;;;;;;8.25;4.72;;;;;;;12.52;100.00;101470.50;5067094;28;20022;-81
2023/07/06 01:38:22;;;;;;;7.20;4.88;;;;;;;12.50;100.00;101474.22;5067789;28;20428;-81
2023/07/06 01:40:48;;;;;;;9.05;4.63;;;;;;;12.48;100.00;101470.84;5074737;28;20016;-81
2023/07/06 01:43:14;;;;;;;9.07;4.20;;;;;;;12.41;100.00;101469.59;5088029;28;20778;-81
2023/07/06 01:45:39;;;;;;;10.40;4.65;;;;;;;12.41;100.00;101472.25;5087374;28;20108;-82
2023/07/06 01:48:10;;;;;;;14.18;4.75;;;;;;;12.39;100.00;101468.84;5088623;28;20465;-81
2023/07/06 01:50:41;;;;;;;7.18;5.03;;;;;;;12.39;100.00;101474.13;5081540;28;20077;-81
2023/07/06 01:53:17;;;;;;;8.52;4.65;;;;;;;12.34;100.00;101469.16;5090040;28;20034;-73
2023/07/06 01:55:47;;;;;;;10.13;4.63;;;;;;;12.37;100.00;101466.31;5087118;28;20480;-81
2023/07/06 01:58:15;;;;;;;11.15;4.80;;;;;;;12.34;100.00;101463.88;5083929;28;20585;-81
2023/07/06 02:00:48;;;;;;;10.13;4.57;;;;;;;12.27;100.00;101478.47;5091781;28;20034;-73
2023/07/06 02:03:15;;;;;;;8.60;4.70;;;;;;;12.33;100.00;101478.03;5084020;28;21787;-73
2023/07/06 02:05:44;;;;;;;9.82;4.85;;;;;;;12.23;100.00;101477.00;5091782;28;20476;-73
2023/07/06 02:08:11;;;;;;;8.07;4.50;;;;;;;12.20;100.00;101483.34;5091552;28;20027;-81
2023/07/06 02:10:37;;;;;;;8.68;4.47;;;;;;;12.14;100.00;101477.66;5093043;28;20073;-81
2023/07/06 02:13:03;;;;;;;12.50;4.30;;;;;;;12.09;100.00;101469.25;5089404;28;20032;-81
2023/07/06 02:15:30;;;;;;;11.20;4.53;;;;;;;12.06;100.00;101472.09;5080332;28;20052;-73
2023/07/06 02:17:56;;;;;;;7.85;4.38;;;;;;;12.05;100.00;101473.88;5088444;28;20036;-73
2023/07/06 02:20:22;;;;;;;11.35;4.47;;;;;;;12.00;100.00;101475.13;5090971;28;20055;-73
2023/07/06 02:22:48;;;;;;;8.68;4.53;;;;;;;12.03;100.00;101473.16;5091742;28;20503;-81
2023/07/06 02:25:14;;;;;;;9.80;4.55;;;;;;;12.02;100.00;101474.09;5090005;28;20392;-81
2023/07/06 02:27:40;;;;;;;10.55;4.75;;;;;;;11.98;100.00;101469.97;5090540;28;20042;-73
2023/07/06 02:30:06;;;;;;;11.68;4.95;;;;;;;11.96;100.00;101468.38;5089618;28;20365;-72
2023/07/06 02:32:32;;;;;;;9.48;4.68;;;;;;;11.98;100.00;101461.22;5110317;27;20077;-72
2023/07/06 02:34:58;;;;;;;11.95;4.65;;;;;;;11.98;100.00;101463.84;5090415;28;20091;-81
2023/07/06 02:37:24;;;;;;;9.80;4.40;;;;;;;12.01;100.00;101461.00;5089444;28;20085;-73
2023/07/06 02:39:50;;;;;;;14.98;5.00;;;;;;;12.03;100.00;101467.03;5090922;28;20063;-73
2023/07/06 02:42:16;;;;;;;12.45;4.88;;;;;;;11.99;100.00;101468.16;5090881;28;20024;-82
2023/07/06 02:44:43;;;;;;;7.70;4.80;;;;;;;12.00;100.00;101467.22;5089757;28;20056;-73
2023/07/06 02:47:09;;;;;;;12.73;4.53;;;;;;;11.98;100.00;101467.31;5091074;28;20028;-73
2023/07/06 02:49:34;;;;;;;12.25;5.35;;;;;;;11.96;100.00;101463.13;5084394;28;20102;-73
2023/07/06 02:52:00;;;;;;;8.05;4.45;;;;;;;11.92;100.00;101468.59;5089416;28;20032;-73
2023/07/06 02:54:26;;;;;;;11.13;4.60;;;;;;;11.94;100.00;101468.50;5100648;28;20031;-73
2023/07/06 02:56:51;;;;;;;8.95;4.78;;;;;;;11.93;100.00;101465.00;5095046;28;20023;-72
2023/07/06 02:59:18;;;;;;;11.98;4.47;;;;;;;11.94;100.00;101471.13;5091305;28;20028;-72
2023/07/06 03:01:43;;;;;;;10.07;4.80;;;;;;;11.95;100.00;101470.19;5088991;28;20032;-73
2023/07/06 03:04:12;;;;;;;8.85;4.63;;;;;;;11.95;100.00;101467.53;5091034;28;20024;-72
2023/07/06 03:06:40;;;;;;;11.45;5.20;;;;;;;11.90;100.00;101473.13;5087980;28;20705;-82
2023/07/06 03:09:07;;;;;;;9.65;4.80;;;;;;;11.92;100.00;101475.66;5087543;28;20050;-73
2023/07/06 03:11:33;;;;;;;8.48;4.85;;;;;;;11.89;100.00;101478.53;5089949;28;20527;-73
2023/07/06 03:14:00;;;;;;;12.38;4.80;;;;;;;11.92;100.00;101473.88;5124125;27;20023;-72
2023/07/06 03:16:27;;;;;;;12.00;4.80;;;;;;;11.91;100.00;101477.47;5090330;28;20086;-73
2023/07/06 03:18:53;;;;;;;10.90;4.85;;;;;;;11.92;100.00;101486.22;5090977;28;20089;-72
2023/07/06 03:21:20;;;;;;;10.70;5.18;;;;;;;11.93;100.00;101482.63;5090992;28;20024;-73
2023/07/06 03:23:45;;;;;;;10.80;5.38;;;;;;;11.92;100.00;101479.16;5082507;28;20052;-73
2023/07/06 03:26:13;;;;;;;14.48;5.68;;;;;;;11.89;100.00;101478.53;5090082;28;20456;-73
2023/07/06 03:28:39;;;;;;;17.83;5.20;;;;;;;11.89;100.00;101483.78;5090909;28;20107;-72
2023/07/06 03:31:04;;;;;;;11.80;5.05;;;;;;;11.90;100.00;101491.59;5088497;28;20474;-72
2023/07/06 03:33:29;;;;;;;13.48;5.00;;;;;;;11.90;100.00;101483.69;5088541;28;20474;-81
2023/07/06 03:35:58;;;;;;;10.98;5.55;;;;;;;11.89;100.00;101495.19;5088430;28;20028;-72
2023/07/06 03:38:29;;;;;;;18.35;5.60;;;;;;;11.91;100.00;101497.72;5088331;28;20020;-82
2023/07/06 03:40:55;;;;;;;10.68;5.70;;;;;;;11.90;100.00;101491.59;5083186;28;20024;-73
2023/07/06 03:43:20;;;;;;;16.98;5.60;;;;;;;11.89;100.00;101503.09;5090284;28;20070;-81
2023/07/06 03:45:48;;;;;;;13.85;5.50;;;;;;;11.92;100.00;101500.25;5089097;28;20052;-73
2023/07/06 03:48:14;;;;;;;10.63;5.40;;;;;;;11.86;100.00;101505.94;5089889;28;20031;-72
2023/07/06 03:50:40;;;;;;;14.18;5.32;;;;;;;11.89;100.00;101507.53;5089438;28;20063;-72
2023/07/06 03:53:07;;;;;;;12.90;5.50;;;;;;;11.84;100.00;101512.28;5089474;28;20035;-73
2023/07/06 03:55:33;;;;;;;14.75;5.80;;;;;;;11.83;100.00;101514.06;5105373;28;20498;-73
2023/07/06 03:58:00;;;;;;;10.98;5.70;;;;;;;11.85;100.00;101514.81;5068793;28;20031;-72
2023/07/06 04:00:28;;;;;;;12.07;5.75;;;;;;;11.83;100.00;101515.88;5087077;28;20392;-73
2023/07/06 04:02:56;;;;;;;14.48;6.25;;;;;;;11.82;100.00;101524.72;5090437;28;20051;-82
2023/07/06 04:05:31;;;;;;;14.32;6.10;;;;;;;11.82;100.00;101524.72;5089315;28;20480;-72
2023/07/06 04:07:57;;;;;;;12.57;5.68;;;;;;;11.84;100.00;101518.41;5088362;28;20024;-72
2023/07/06 04:10:22;;;;;;;15.52;5.78;;;;;;;11.87;100.00;101526.09;5089798;28;20256;-72
2023/07/06 04:12:49;;;;;;;15.48;5.93;;;;;;;11.86;100.00;101534.13;5089476;28;20024;-82
2023/07/06 04:15:17;;;;;;;13.25;5.80;;;;;;;11.88;100.00;101525.16;5080431;28;20146;-81
2023/07/06 04:17:52;;;;;;;14.88;6.18;;;;;;;11.90;100.00;101525.03;5089383;28;20484;-81
2023/07/06 04:20:20;;;;;;;16.75;6.43;;;;;;;11.90;100.00;101528.53;5089481;28;20387;-72
2023/07/06 04:22:54;;;;;;;12.23;6.05;;;;;;;11.87;100.00;101528.72;5091826;28;20020;-82
2023/07/06 04:25:21;;;;;;;14.18;6.30;;;;;;;11.89;100.00;101528.63;5088785;28;20024;-81
2023/07/06 04:27:49;;;;;;;14.60;6.22;;;;;;;11.95;100.00;101524.72;5088480;28;20031;-73
2023/07/06 04:30:16;;;;;;;18.38;6.47;;;;;;;11.96;100.00;101532.53;5089420;28;20072;-82
2023/07/06 04:32:48;;;;;;;13.80;5.95;;;;;;;11.95;100.00;101530.00;5083217;28;20013;-72
2023/07/06 04:35:14;;;;;;;;;;;;;;;12.05;100.00;101541.63;5089787;28;20059;-72
2023/07/06 04:37:41;;;;;;;15.15;6.38;;;;;;;12.00;100.00;101535.78;5089756;28;19943;-81
2023/07/06 04:40:12;;;;;;;12.93;6.22;;;;;;;12.02;100.00;101542.69;5088039;28;20024;-73
2023/07/06 04:42:40;;;;;;;17.95;6.55;;;;;;;12.09;100.00;101543.94;5090035;28;20047;-72
2023/07/06 04:45:11;;;;;;;14.38;6.53;;;;;;;12.10;100.00;101544.78;5089028;28;20043;-72
2023/07/06 04:47:39;;;;;;;17.73;6.00;;;;;;;12.12;100.00;101543.72;5087464;28;20430;-73
2023/07/06 04:50:17;;;;;;;19.58;7.97;;;;;;;12.12;100.00;101548.16;5082547;28;20391;-72
2023/07/06 04:52:45;;;;;;;16.92;6.72;;;;;;;12.17;100.00;101551.31;5087674;28;20047;-73
2023/07/06 04:55:12;;;;;;;16.50;6.32;;;;;;;12.21;100.00;101547.50;5102581;28;20091;-72
2023/07/06 04:57:42;;;;;;;15.05;6.75;;;;;;;12.30;100.00;101549.50;5089569;28;20116;-73
2023/07/06 05:00:16;;;;;;;18.65;7.10;;;;;;;12.34;100.00;101553.63;5087325;28;20069;-72
2023/07/06 05:02:42;;;;;;;15.13;6.75;;;;;;;12.38;100.00;101547.16;5085320;28;20035;-81
2023/07/06 05:05:11;;;;;;;20.85;7.60;;;;;;;12.42;100.00;101551.31;5085747;28;20032;-82
2023/07/06 05:07:41;;;;;;;18.10;7.38;;;;;;;12.47;100.00;101553.63;5113229;28;20123;-82
2023/07/06 05:10:08;;;;;;;14.20;7.30;;;;;;;12.53;100.00;101553.19;5087114;28;20492;-82
2023/07/06 05:12:34;;;;;;;19.73;8.52;;;;;;;12.53;100.00;101554.03;5089657;28;20028;-82
2023/07/06 05:14:59;;;;;;;16.65;8.52;;;;;;;12.62;100.00;101557.78;5088485;28;20082;-73
2023/07/06 05:17:25;;;;;;;18.35;8.10;;;;;;;12.68;100.00;101556.50;5089085;28;20032;-72
2023/07/06 05:19:50;;;;;;;22.38;8.50;;;;;;;12.71;100.00;101556.28;5089380;28;20024;-82
2023/07/06 05:22:18;;;;;;;18.65;8.85;;;;;;;12.74;100.00;101561.34;5081856;28;20076;-82
2023/07/06 05:24:48;;;;;;;18.23;8.65;;;;;;;12.78;100.00;101565.47;5083310;28;20020;-82
2023/07/06 05:27:14;;;;;;;21.90;9.25;;;;;;;12.85;100.00;101556.16;5089509;28;20024;-73
2023/07/06 05:29:40;;;;;;;20.05;8.57;;;;;;;12.91;100.00;101553.06;5092585;28;20028;-73
2023/07/06 05:32:06;;;;;;;20.63;9.70;;;;;;;12.96;100.00;101564.16;5092898;28;20031;-82
2023/07/06 05:34:32;;;;;;;20.73;9.10;;;;;;;13.05;100.00;101560.84;5091895;28;20028;-72
2023/07/06 05:36:57;;;;;;;22.05;9.73;;;;;;;13.09;100.00;101566.72;5090899;28;20054;-81
2023/07/06 05:39:23;;;;;;;20.02;9.75;;;;;;;13.13;100.00;101562.91;5086923;28;20059;-72
2023/07/06 05:41:48;;;;;;;20.95;8.60;;;;;;;13.14;100.00;101568.06;5100297;28;20028;-72
2023/07/06 05:44:14;;;;;;;19.17;10.00;;;;;;;13.27;100.00;101559.31;5112604;28;20110;-72
2023/07/06 05:46:39;;;;;;;25.27;9.75;;;;;;;13.25;100.00;101556.78;5113657;28;20486;-73
2023/07/06 05:49:05;;;;;;;24.27;10.05;;;;;;;13.31;100.00;101576.63;5113190;28;20023;-83
2023/07/06 05:51:30;;;;;;;22.15;9.80;;;;;;;13.37;100.00;101570.88;5112171;28;20068;-73
2023/07/06 05:53:56;;;;;;;17.98;9.40;;;;;;;13.40;100.00;101565.34;5104647;28;20015;-82
2023/07/06 05:56:23;;;;;;;23.08;9.70;;;;;;;13.46;100.00;101562.25;5095676;28;20031;-73
2023/07/06 05:58:49;;;;;;;25.98;10.48;;;;;;;13.59;100.00;101565.66;5084018;28;20114;-82
2023/07/06 06:01:14;;;;;;;23.92;10.20;;;;;;;13.63;100.00;101568.94;5090549;28;20059;-82
2023/07/06 06:03:40;;;;;;;22.30;10.38;;;;;;;13.66;100.00;101566.91;5090877;28;20043;-72
2023/07/06 06:06:06;;;;;;;22.70;10.50;;;;;;;13.66;100.00;101569.56;5090517;28;20028;-72
2023/07/06 06:08:32;;;;;;;23.00;9.52;;;;;;;13.74;100.00;101574.25;5090936;28;20058;-73
2023/07/06 06:11:00;;;;;;;19.85;9.93;;;;;;;13.80;100.00;101577.28;5089829;28;20110;-73
2023/07/06 06:13:27;;;;;;;19.33;9.82;;;;;;;13.90;100.00;101581.88;5089508;28;20125;-73
2023/07/06 06:15:57;;;;;;;20.15;10.13;;;;;;;13.99;100.00;101578.50;5086040;28;20450;-83
2023/07/06 06:18:22;;;;;;;18.77;9.25;;;;;;;14.13;100.00;101582.75;5078097;28;20086;-73
2023/07/06 06:20:48;;;;;;;26.25;10.60;;;;;;;14.17;100.00;101585.06;5065541;28;20055;-82
2023/07/06 06:23:15;;;;;;;18.20;10.00;;;;;;;14.22;100.00;101585.53;5070502;28;20361;-73
2023/07/06 06:25:45;;;;;;;19.15;10.25;;;;;;;14.32;100.00;101586.50;5068398;28;20029;-73
2023/07/06 06:28:12;;;;;;;22.25;9.80;;;;;;;14.45;100.00;101597.03;5070124;28;20025;-72
2023/07/06 06:30:40;;;;;;;18.38;10.23;;;;;;;14.56;100.00;101598.81;5072065;28;20066;-73
2023/07/06 06:33:06;;;;;;;24.88;10.35;;;;;;;14.60;100.00;101606.41;5071616;28;20028;-73
2023/07/06 06:35:33;;;;;;;19.17;10.45;;;;;;;14.72;100.00;101602.78;5072014;28;20487;-72
2023/07/06 06:37:58;;;;;;;19.98;11.10;;;;;;;14.77;100.00;101607.72;5066686;28;20024;-83
2023/07/06 06:40:24;;;;;;;22.33;10.70;;;;;;;14.83;100.00;101607.25;5068744;28;20146;-82
2023/07/06 06:42:50;;;;;;;28.10;11.85;;;;;;;14.93;100.00;101608.19;5071839;28;20020;-82
2023/07/06 06:45:17;;;;;;;21.67;11.00;;;;;;;14.96;100.00;101612.41;5070320;28;20129;-82
2023/07/06 06:47:44;;;;;;;24.38;11.10;;;;;;;14.98;100.00;101610.47;5070663;28;20392;-83
2023/07/06 06:50:11;;;;;;;22.85;10.82;;;;;;;15.05;100.00;101611.66;5070140;28;20519;-83
2023/07/06 06:52:40;;;;;;;22.33;10.55;;;;;;;15.28;100.00;101613.28;5072018;28;20103;-82
2023/07/06 06:55:06;;;;;;;24.85;11.70;;;;;;;15.24;100.00;101621.63;5085321;28;20099;-83
2023/07/06 06:57:32;;;;;;;22.52;12.07;;;;;;;15.30;100.00;101623.78;5071389;28;20028;-77
2023/07/06 06:59:59;;;;;;;25.85;12.23;;;;;;;15.24;100.00;101619.81;5071574;28;20023;-74
2023/07/06 07:02:25;;;;;;;23.20;11.43;;;;;;;15.30;100.00;101627.28;5068457;28;20096;-78
2023/07/06 07:04:50;;;;;;;22.23;11.63;;;;;;;15.40;100.00;101626.50;5069261;28;20063;-78
2023/07/06 07:07:16;;;;;;;24.98;11.98;;;;;;;15.39;100.00;101630.97;5070595;28;20052;-74
2023/07/06 07:09:44;;;;;;;27.85;13.18;;;;;;;15.49;100.00;101631.91;5064363;28;20021;-74
2023/07/06 07:12:10;;;;;;;24.50;12.07;;;;;;;15.64;100.00;101636.00;5049775;28;20025;-74
2023/07/06 07:14:36;;;;;;;23.92;12.07;;;;;;;15.52;100.00;101636.94;5049542;28;20025;-78
2023/07/06 07:17:02;;;;;;;23.42;12.52;;;;;;;15.70;100.00;101629.34;5049547;28;20055;-80
2023/07/06 07:19:28;;;;;;;28.60;11.30;;;;;;;15.82;99.91;101638.06;5061599;28;20027;-78
2023/07/06 07:21:53;;;;;;;26.25;12.52;;;;;;;15.73;99.70;101638.84;5069851;28;20029;-80
2023/07/06 07:24:19;;;;;;;22.45;11.15;;;;;;;15.87;99.84;101631.41;5069296;28;20024;-79
2023/07/06 07:26:48;;;;;;;21.40;12.40;;;;;;;15.98;98.91;101638.47;5067074;28;20058;-80
2023/07/06 07:29:14;;;;;;;24.77;12.95;;;;;;;15.96;98.35;101651.88;5068954;28;20048;-72
2023/07/06 07:31:41;;;;;;;22.65;11.55;;;;;;;16.04;97.65;101650.41;5070024;28;20071;-72
2023/07/06 07:34:10;;;;;;;20.38;12.68;;;;;;;16.09;98.39;101648.19;5070510;28;20051;-83
2023/07/06 07:36:40;;;;;;;19.92;12.55;;;;;;;16.18;97.76;101656.22;5068577;28;20024;-82
2023/07/06 07:39:05;;;;;;;23.20;12.40;;;;;;;16.53;96.78;101652.38;5072051;28;20111;-72
2023/07/06 07:41:31;;;;;;;23.50;12.60;;;;;;;16.80;95.14;101652.66;5069459;28;20107;-72
2023/07/06 07:43:58;;;;;;;23.67;12.05;;;;;;;17.01;92.13;101644.63;5062258;28;20115;-83
2023/07/06 07:46:25;;;;;;;23.42;11.95;;;;;;;16.97;91.75;101645.03;5069331;28;20086;-81
2023/07/06 07:48:51;;;;;;;19.75;11.65;;;;;;;17.11;92.45;101644.63;5070300;28;20017;-71
2023/07/06 07:51:19;;;;;;;25.85;12.30;;;;;;;17.02;91.53;101650.78;5068426;28;20028;-71
2023/07/06 07:53:45;;;;;;;17.70;11.45;;;;;;;17.14;92.37;101649.69;5073599;28;20422;-82
2023/07/06 07:56:15;;;;;;;24.50;13.55;;;;;;;17.08;90.28;101648.41;5069160;28;20021;-82
2023/07/06 07:58:41;;;;;;;21.65;12.00;;;;;;;17.44;91.09;101641.63;5068994;28;20028;-70
2023/07/06 08:01:10;;;;;;;24.08;12.45;;;;;;;17.86;90.02;101646.72;5060489;28;20036;-71
2023/07/06 08:03:36;;;;;;;22.90;11.13;;;;;;;18.40;87.29;101650.53;5065262;28;20040;-81
2023/07/06 08:06:05;;;;;;;21.75;10.65;;;;;;;18.49;85.27;101649.69;5067532;28;20025;-81
2023/07/06 08:08:32;;;;;;;22.85;11.13;;;;;;;18.45;83.75;101653.63;5057591;28;20385;-71
2023/07/06 08:11:03;;;;;;;20.88;10.75;;;;;;;18.51;83.39;101660.22;5048561;28;20036;-71
2023/07/06 08:13:29;;;;;;;20.67;10.55;;;;;;;18.75;83.32;101650.72;5050533;28;20100;-71
2023/07/06 08:15:55;;;;;;;19.25;9.75;;;;;;;18.60;80.98;101652.19;5069306;28;20112;-82
2023/07/06 08:18:24;;;;;;;19.75;9.65;;;;;;;18.44;81.10;101657.28;5068395;28;20103;-82
2023/07/06 08:20:53;;;;;;;14.25;9.15;;;;;;;18.36;82.87;101657.97;5068916;28;20024;-81
2023/07/06 08:23:20;;;;;;;19.13;9.88;;;;;;;18.46;83.32;101668.66;5069114;28;20108;-82
2023/07/06 08:25:46;;;;;;;21.90;9.50;;;;;;;18.64;82.09;101652.75;5067520;28;20028;-81
2023/07/06 08:28:12;;;;;;;18.15;9.73;;;;;;;18.88;80.31;101666.41;5068471;28;20429;-82
2023/07/06 08:30:40;;;;;;;18.88;9.90;;;;;;;18.90;79.81;101660.94;5069280;28;20081;-72
2023/07/06 08:33:09;;;;;;;17.23;10.18;;;;;;;18.66;80.59;101659.63;5067517;28;20606;-82
2023/07/06 08:35:40;;;;;;;19.30;9.45;;;;;;;19.03;81.06;101658.75;5067166;28;20025;-82
2023/07/06 08:38:05;;;;;;;19.45;9.82;;;;;;;19.26;79.28;101662.72;5069008;28;20036;-82
2023/07/06 08:40:32;;;;;;;16.48;9.02;;;;;;;19.60;77.79;101667.41;5067867;28;20468;-83
2023/07/06 08:43:00;;;;;;;17.52;8.45;;;;;;;19.69;75.52;101666.50;5069401;28;20035;-72
2023/07/06 08:45:39;;;;;;;17.80;8.45;;;;;;;19.99;76.97;101674.09;5068799;28;20408;-72
2023/07/06 08:48:06;;;;;;;14.98;8.02;;;;;;;19.93;73.24;101682.72;5068157;28;20488;-81
2023/07/06 08:50:33;;;;;;;14.02;7.03;;;;;;;20.18;72.17;101678.44;5069866;28;20028;-71
2023/07/06 08:53:00;;;;;;;14.73;7.60;;;;;;;20.23;73.21;101676.13;5069006;28;20426;-82
2023/07/06 08:55:26;;;;;;;12.75;6.80;;;;;;;20.21;72.86;101674.63;5084482;28;20041;-72
2023/07/06 08:57:53;;;;;;;16.52;6.93;;;;;;;20.35;70.68;101674.03;5060986;28;20020;-72
2023/07/06 09:00:25;;;;;;;13.23;6.05;;;;;;;20.92;72.01;101677.09;5068661;28;20055;-72
2023/07/06 09:03:10;;;;;;;14.55;6.45;;;;;;;20.90;71.32;101674.56;5072670;28;20024;-71
2023/07/06 09:05:43;;;;;;;14.90;6.43;;;;;;;20.71;69.47;101690.00;5073332;28;20036;-70
2023/07/06 09:08:13;;;;;;;;;;;;;;;21.00;73.98;101685.13;5073468;28;20036;-71
2023/07/06 09:10:38;;;;;;;15.27;5.75;;;;;;;20.75;67.09;101677.97;5074076;28;19909;-72
2023/07/06 09:13:27;;;;;;;11.15;5.65;;;;;;;20.57;70.60;101686.94;5073194;28;20027;-71
2023/07/06 09:16:00;;;;;;;13.30;5.03;;;;;;;20.30;71.51;101693.22;5071402;28;20024;-82
2023/07/06 09:18:26;;;;;;;13.30;4.63;;;;;;;20.46;68.82;101687.19;5066503;28;20032;-82
2023/07/06 09:20:53;;;;;;;12.93;5.10;;;;;;;20.93;66.61;101678.75;5064396;28;20387;-71
2023/07/06 09:23:19;;;;;;;10.02;4.18;;;;;;;21.15;67.40;101680.00;5067416;28;20105;-72
2023/07/06 09:25:47;;;;;;;10.07;4.40;;;;;;;21.03;66.21;101695.53;5094840;28;20035;-71
2023/07/06 09:28:18;;;;;;;10.55;4.22;;;;;;;21.22;65.05;101679.22;5071493;28;20028;-71
2023/07/06 09:30:44;;;;;;;8.70;4.18;;;;;;;21.49;63.60;101679.97;5072343;28;20365;-71
2023/07/06 09:33:17;;;;;;;10.30;3.92;;;;;;;21.45;64.10;101683.97;5072488;28;20035;-71
2023/07/06 09:35:43;;;;;;;12.73;3.92;;;;;;;21.18;63.82;101685.88;5071987;28;20133;-71
2023/07/06 09:38:13;;;;;;;9.85;3.55;;;;;;;21.51;65.28;101689.50;5072661;28;20040;-71
2023/07/06 09:40:43;;;;;;;10.15;3.63;;;;;;;21.69;60.88;101692.06;5073078;28;20043;-82
2023/07/06 09:43:24;;;;;;;7.78;3.28;;;;;;;21.74;62.97;101687.03;5066636;28;20086;-82
2023/07/06 09:45:51;;;;;;;9.48;3.45;;;;;;;21.43;61.88;101686.81;5071989;28;20072;-72
2023/07/06 09:48:37;;;;;;;7.53;3.75;;;;;;;21.31;62.72;101688.13;5072632;28;20036;-72
2023/07/06 09:51:11;;;;;;;9.80;3.13;;;;;;;21.19;61.21;101697.41;5071586;28;20117;-72
2023/07/06 09:53:45;;;;;;;5.78;2.90;;;;;;;21.12;61.77;101696.38;5075989;28;20058;-72
2023/07/06 09:56:12;;;;;;;8.52;3.30;;;;;;;20.96;63.21;101695.31;5065101;28;20017;-73
2023/07/06 09:58:39;;;;;;;11.98;3.78;;;;;;;21.09;63.25;101694.88;5070594;28;20020;-72
2023/07/06 10:01:28;;;;;;;9.07;2.80;;;;;;;20.98;63.83;101692.50;5072184;28;20028;-73
2023/07/06 10:04:40;;;;;;;7.38;2.58;;;;;;;20.99;63.06;101682.63;5071263;28;20081;-73
2023/07/06 10:07:37;;;;;;;11.15;3.20;;;;;;;20.80;62.81;101681.84;5049857;28;20052;-72
2023/07/06 10:10:20;;;;;;;7.60;2.90;;;;;;;21.02;62.18;101693.00;5066854;28;20439;-72
2023/07/06 10:13:00;;;;;;;6.95;3.15;;;;;;;21.44;61.26;101682.31;5065518;28;20026;-73
2023/07/06 10:16:11;;;;;;;6.47;2.80;;;;;;;21.86;60.33;101683.03;5072099;28;20586;-83
2023/07/06 10:18:51;;;;;;;7.50;2.72;;;;;;;21.65;60.21;101684.53;5029262;28;20048;-72
2023/07/06 10:21:25;;;;;;;7.47;3.35;;;;;;;21.29;58.54;101681.25;5069141;28;20037;-71
2023/07/06 10:24:01;;;;;;;6.72;2.63;;;;;;;21.16;59.57;101690.53;5071255;28;20024;-82
2023/07/06 10:26:32;;;;;;;10.88;2.95;;;;;;;21.12;61.44;101683.84;5069207;28;20433;-82
2023/07/06 10:29:05;;;;;;;7.72;2.70;;;;;;;21.82;61.22;101680.84;5070915;28;20029;-71
2023/07/06 10:31:51;;;;;;;7.93;3.30;;;;;;;22.08;57.89;101680.72;5068696;28;20024;-71
2023/07/06 10:35:09;;;;;;;7.25;2.95;;;;;;;22.14;58.46;101677.38;5071065;28;20039;-82
2023/07/06 10:37:35;;;;;;;6.47;2.65;;;;;;;21.88;55.92;101677.50;5056502;28;20032;-82
2023/07/06 10:40:24;;;;;;;6.13;2.80;;;;;;;21.95;57.10;101675.81;5070457;28;20036;-81
2023/07/06 10:43:13;;;;;;;8.25;2.90;;;;;;;22.13;58.58;101678.38;5069592;28;20090;-81
2023/07/06 10:45:43;;;;;;;8.65;2.45;;;;;;;22.27;57.99;101675.00;5070422;28;20415;-80
2023/07/06 10:48:25;;;;;;;8.23;2.85;;;;;;;22.20;54.94;101674.84;5067132;28;20039;-71
2023/07/06 10:51:19;;;;;;;5.88;2.45;;;;;;;22.66;56.73;101675.09;5066466;28;20024;-81
2023/07/06 10:54:20;;;;;;;4.80;1.95;;;;;;;22.97;55.81;101675.19;5075259;28;20019;-82
2023/07/06 10:57:00;;;;;;;6.53;2.40;;;;;;;22.57;52.46;101678.81;5062516;28;20013;-82
2023/07/06 10:59:34;;;;;;;7.85;2.92;;;;;;;22.25;52.53;101679.69;5070656;28;20104;-71
2023/07/06 11:02:14;;;;;;;4.93;2.40;;;;;;;22.04;53.76;101679.41;5066987;28;20082;-82
2023/07/06 11:04:40;;;;;;;6.03;2.30;;;;;;;21.99;54.58;101684.38;5055789;28;20061;-71
2023/07/06 11:07:11;;;;;;;7.65;2.15;;;;;;;21.75;52.57;101694.06;5065790;28;20033;-71
2023/07/06 11:10:07;;;;;;;4.55;2.05;;;;;;;21.67;54.36;101693.25;5071224;28;20037;-81
2023/07/06 11:12:54;;;;;;;6.55;1.95;;;;;;;21.57;54.40;101688.84;5100842;28;20048;-79
2023/07/06 11:15:25;;;;;;;6.38;2.10;;;;;;;21.71;55.08;101695.41;5068587;28;20445;-71
2023/07/06 11:17:55;;;;;;;5.45;2.10;;;;;;;22.13;52.84;101695.31;5065771;28;20025;-82
2023/07/06 11:20:26;;;;;;;5.97;2.10;;;;;;;22.38;52.92;101688.06;5067883;28;20029;-82
2023/07/06 11:22:57;;;;;;;6.70;2.30;;;;;;;22.31;53.27;101692.44;5067504;28;20021;-82
2023/07/06 11:25:26;;;;;;;6.57;2.22;;;;;;;22.19;52.95;101693.78;5068315;28;20137;-83
2023/07/06 11:27:59;;;;;;;5.55;2.30;;;;;;;21.86;54.64;101698.28;5069486;28;20103;-81
2023/07/06 11:30:34;;;;;;;6.80;1.98;;;;;;;21.71;55.08;101706.13;5070078;28;20090;-83